Flight Track Log - Related Links

Times and Time Zones

All times are in EDT time to prevent confusion due to time zone crossing. See the N76XX flight status page for this flight to view local times or setup timezone preferences in your user account.


Time Position Orientation Groundspeed Altitude Reporting Facility
EDT Latitude Longitude Course Direction KTS MPH feet Rate Location/Type
Wed 10:40:53 AM 41.5508 -70.5492 245° Southwest 155 178 1,900  Level Boston Center
Wed 10:41:54 AM 41.5342 -70.6019 247° West 155 178 1,900  Level Boston Center
Wed 10:42:56 AM 41.5144 -70.6603 246° West 155 178 1,900  Level Boston Center
Wed 10:43:58 AM 41.4967 -70.7117 245° Southwest 153 176 1,900  Level Boston Center
Wed 10:44:00 AM 41.5796 -70.5106 245° Southwest  Level FlightAware Approximate
Wed 10:44:59 AM 41.4772 -70.7681 245° Southwest 154 177 1,900  Level Boston Center
Wed 10:48:04 AM 41.4239 -70.9258 244° Southwest 151 174 1,900  Level Boston Center
Wed 10:48:41 AM 41.4108 -70.9572 241° Southwest 154 177 1,900  Level Boston Center
Wed 10:49:05 AM 41.4058 -70.9767 251° West 153 176 1,900  Level Boston Center
Wed 10:49:42 AM 41.3942 -71.0086 244° Southwest 151 174 1,900 28 Level Boston Center
Wed 10:52:39 AM 41.3425 -71.1564 245° Southwest 148 170 2,000  Climbing Boston Center
Wed 10:53:00 AM 41.3697 -71.1002 244° Southwest  Level FlightAware Approximate
Wed 10:53:11 AM 41.3344 -71.1836 248° West 154 177 1,900  Level Boston Center
Wed 10:53:39 AM 41.3256 -71.2075 244° Southwest 151 174 1,900  Level Boston Center
Wed 10:54:13 AM 41.3167 -71.2364 248° West 150 173 1,900 25 Level Boston Center
Wed 10:57:37 AM 41.2569 -71.4061 244° Southwest 150 173 2,000 24 Climbing Boston Center
Wed 10:58:19 AM 41.2456 -71.4417 247° West 150 173 2,000  Level Boston Center
Wed 10:58:43 AM 41.2372 -71.4592 238° Southwest 147 169 2,000  Level Boston Center
Wed 11:01:57 AM 41.1825 -71.6194 242° Southwest 160 184 2,000  Level Boston Center
Wed 11:02:26 AM 41.1764 -71.6411 249° West 147 169 2,000  Level Boston Center
Wed 11:04:00 AM 41.1456 -71.7276 245° Southwest  Level Estimated
Wed 11:07:00 AM 41.0683 -71.9126 242° Southwest  Level FlightAware Approximate
Wed 11:11:00 AM 41.0667 -71.9167 242° Southwest  Level FlightAware Approximate
Wed 11:12:00 AM 41.0767 -71.9205 143° Southeast  Level Estimated
Wed 11:13:00 AM 41.0767 -71.9205 242° Southwest  Level Estimated
Wed 11:14:00 AM 41.0767 -71.9205 164° South  Level Estimated
Wed 11:15:00 AM 41.0767 -71.9205 242° Southwest  Level Estimated
Wed 11:16:00 AM 41.0767 -71.9205 164° South  Level Estimated
Wed 11:17:00 AM 41.0767 -71.9205 242° Southwest  Level Estimated
Wed 11:18:00 AM 41.0767 -71.9205 164° South  Level Estimated
Wed 11:19:00 AM 41.0767 -71.9205 242° Southwest  Level Estimated
Wed 11:20:00 AM 41.0767 -71.9205 164° South  Level Estimated
Wed 11:21:00 AM 41.0767 -71.9205 242° Southwest  Level Estimated
Wed 11:22:00 AM 41.0767 -71.9205 164° South  Level Estimated
Wed 11:23:00 AM 41.0767 -71.9205 242° Southwest  Level Estimated

Login

Don't have an account? Register now (free) for customized features, flight alerts, and more!